sensor_id;sensor_type;location;lat;lon;timestamp;P1;durP1;ratioP1;P2;durP2;ratioP2
1258;SDS011;619;51.472;6.628;2023-04-03T00:01:01;8.80;;;7.50;;
1258;SDS011;619;51.472;6.628;2023-04-03T00:03:28;10.13;;;7.97;;
1258;SDS011;619;51.472;6.628;2023-04-03T00:05:56;9.87;;;8.40;;
1258;SDS011;619;51.472;6.628;2023-04-03T00:08:22;9.83;;;7.27;;
1258;SDS011;619;51.472;6.628;2023-04-03T00:10:48;9.20;;;7.60;;
1258;SDS011;619;51.472;6.628;2023-04-03T00:13:16;11.60;;;8.60;;
1258;SDS011;619;51.472;6.628;2023-04-03T00:15:42;9.60;;;8.00;;
1258;SDS011;619;51.472;6.628;2023-04-03T00:18:08;10.83;;;8.30;;
1258;SDS011;619;51.472;6.628;2023-04-03T00:20:36;8.50;;;7.70;;
1258;SDS011;619;51.472;6.628;2023-04-03T00:23:02;8.77;;;7.87;;
1258;SDS011;619;51.472;6.628;2023-04-03T00:25:28;11.27;;;8.90;;
1258;SDS011;619;51.472;6.628;2023-04-03T00:27:54;11.30;;;10.13;;
1258;SDS011;619;51.472;6.628;2023-04-03T00:30:23;11.47;;;9.03;;
1258;SDS011;619;51.472;6.628;2023-04-03T00:32:52;12.30;;;9.77;;
1258;SDS011;619;51.472;6.628;2023-04-03T00:35:18;12.57;;;8.77;;
1258;SDS011;619;51.472;6.628;2023-04-03T00:37:45;9.00;;;7.43;;
1258;SDS011;619;51.472;6.628;2023-04-03T00:40:13;9.87;;;7.90;;
1258;SDS011;619;51.472;6.628;2023-04-03T00:42:40;11.47;;;9.10;;
1258;SDS011;619;51.472;6.628;2023-04-03T00:47:39;10.23;;;8.03;;
1258;SDS011;619;51.472;6.628;2023-04-03T00:50:06;15.03;;;9.90;;
1258;SDS011;619;51.472;6.628;2023-04-03T00:52:35;11.97;;;7.70;;
1258;SDS011;619;51.472;6.628;2023-04-03T00:55:03;10.50;;;9.17;;
1258;SDS011;619;51.472;6.628;2023-04-03T00:57:29;8.07;;;7.30;;
1258;SDS011;619;51.472;6.628;2023-04-03T01:00:03;11.13;;;9.40;;
1258;SDS011;619;51.472;6.628;2023-04-03T01:02:30;11.40;;;10.00;;
1258;SDS011;619;51.472;6.628;2023-04-03T01:04:56;11.83;;;9.00;;
1258;SDS011;619;51.472;6.628;2023-04-03T01:07:26;9.50;;;7.80;;
1258;SDS011;619;51.472;6.628;2023-04-03T01:09:56;8.03;;;7.23;;
1258;SDS011;619;51.472;6.628;2023-04-03T01:12:23;11.40;;;8.93;;
1258;SDS011;619;51.472;6.628;2023-04-03T01:14:51;8.87;;;7.70;;
1258;SDS011;619;51.472;6.628;2023-04-03T01:19:57;9.83;;;7.60;;
1258;SDS011;619;51.472;6.628;2023-04-03T01:22:30;9.07;;;7.67;;
1258;SDS011;619;51.472;6.628;2023-04-03T01:25:01;8.13;;;7.33;;
1258;SDS011;619;51.472;6.628;2023-04-03T01:27:27;8.93;;;6.80;;
1258;SDS011;619;51.472;6.628;2023-04-03T01:29:53;5.20;;;4.70;;
1258;SDS011;619;51.472;6.628;2023-04-03T01:32:21;9.97;;;5.00;;
1258;SDS011;619;51.472;6.628;2023-04-03T01:34:47;5.73;;;4.67;;
1258;SDS011;619;51.472;6.628;2023-04-03T01:37:15;6.17;;;4.90;;
1258;SDS011;619;51.472;6.628;2023-04-03T01:39:41;7.93;;;5.43;;
1258;SDS011;619;51.472;6.628;2023-04-03T01:42:07;10.53;;;4.73;;
1258;SDS011;619;51.472;6.628;2023-04-03T01:44:36;6.13;;;4.30;;
1258;SDS011;619;51.472;6.628;2023-04-03T01:47:02;6.07;;;4.10;;
1258;SDS011;619;51.472;6.628;2023-04-03T01:49:31;5.57;;;3.67;;
1258;SDS011;619;51.472;6.628;2023-04-03T01:51:59;6.57;;;4.53;;
1258;SDS011;619;51.472;6.628;2023-04-03T01:54:25;7.03;;;4.70;;
1258;SDS011;619;51.472;6.628;2023-04-03T01:56:51;5.23;;;3.50;;
1258;SDS011;619;51.472;6.628;2023-04-03T01:59:17;6.97;;;3.37;;
1258;SDS011;619;51.472;6.628;2023-04-03T02:01:44;3.33;;;3.03;;
1258;SDS011;619;51.472;6.628;2023-04-03T02:04:10;5.23;;;3.20;;
1258;SDS011;619;51.472;6.628;2023-04-03T02:06:36;7.80;;;3.80;;
1258;SDS011;619;51.472;6.628;2023-04-03T02:09:07;7.33;;;3.50;;
1258;SDS011;619;51.472;6.628;2023-04-03T02:11:35;4.23;;;3.53;;
1258;SDS011;619;51.472;6.628;2023-04-03T02:14:06;5.03;;;3.53;;
1258;SDS011;619;51.472;6.628;2023-04-03T02:16:32;4.87;;;3.90;;
1258;SDS011;619;51.472;6.628;2023-04-03T02:19:00;6.67;;;2.93;;
1258;SDS011;619;51.472;6.628;2023-04-03T02:21:26;4.33;;;3.10;;
1258;SDS011;619;51.472;6.628;2023-04-03T02:23:55;4.60;;;2.50;;
1258;SDS011;619;51.472;6.628;2023-04-03T02:26:21;6.17;;;3.43;;
1258;SDS011;619;51.472;6.628;2023-04-03T02:28:47;10.10;;;2.90;;
1258;SDS011;619;51.472;6.628;2023-04-03T02:31:16;4.53;;;2.90;;
1258;SDS011;619;51.472;6.628;2023-04-03T02:33:42;3.53;;;2.60;;
1258;SDS011;619;51.472;6.628;2023-04-03T02:36:12;6.67;;;2.70;;
1258;SDS011;619;51.472;6.628;2023-04-03T02:38:39;5.63;;;2.70;;
1258;SDS011;619;51.472;6.628;2023-04-03T02:41:08;5.10;;;2.70;;
1258;SDS011;619;51.472;6.628;2023-04-03T02:43:37;6.93;;;2.43;;
1258;SDS011;619;51.472;6.628;2023-04-03T02:46:03;4.23;;;2.50;;
1258;SDS011;619;51.472;6.628;2023-04-03T02:48:30;6.03;;;3.30;;
1258;SDS011;619;51.472;6.628;2023-04-03T02:50:56;5.23;;;2.80;;
1258;SDS011;619;51.472;6.628;2023-04-03T02:53:24;6.27;;;3.23;;
1258;SDS011;619;51.472;6.628;2023-04-03T02:55:50;6.10;;;3.10;;
1258;SDS011;619;51.472;6.628;2023-04-03T02:58:16;8.43;;;2.80;;
1258;SDS011;619;51.472;6.628;2023-04-03T03:00:45;8.30;;;3.17;;
1258;SDS011;619;51.472;6.628;2023-04-03T03:03:11;6.07;;;2.57;;
1258;SDS011;619;51.472;6.628;2023-04-03T03:05:42;5.20;;;3.07;;
1258;SDS011;619;51.472;6.628;2023-04-03T03:08:08;5.33;;;3.00;;
1258;SDS011;619;51.472;6.628;2023-04-03T03:10:36;7.90;;;2.40;;
1258;SDS011;619;51.472;6.628;2023-04-03T03:13:02;8.97;;;2.90;;
1258;SDS011;619;51.472;6.628;2023-04-03T03:15:28;6.23;;;3.00;;
1258;SDS011;619;51.472;6.628;2023-04-03T03:17:57;8.50;;;3.07;;
1258;SDS011;619;51.472;6.628;2023-04-03T03:20:23;4.77;;;2.83;;
1258;SDS011;619;51.472;6.628;2023-04-03T03:22:49;8.00;;;3.57;;
1258;SDS011;619;51.472;6.628;2023-04-03T03:25:17;6.10;;;2.83;;
1258;SDS011;619;51.472;6.628;2023-04-03T03:27:46;3.07;;;2.13;;
1258;SDS011;619;51.472;6.628;2023-04-03T03:30:16;4.77;;;2.80;;
1258;SDS011;619;51.472;6.628;2023-04-03T03:32:42;4.17;;;2.50;;
1258;SDS011;619;51.472;6.628;2023-04-03T03:35:08;6.73;;;2.70;;
1258;SDS011;619;51.472;6.628;2023-04-03T03:37:35;4.40;;;2.07;;
1258;SDS011;619;51.472;6.628;2023-04-03T03:40:05;7.33;;;2.10;;
1258;SDS011;619;51.472;6.628;2023-04-03T03:42:32;3.17;;;2.07;;
1258;SDS011;619;51.472;6.628;2023-04-03T03:45:00;6.60;;;2.40;;
1258;SDS011;619;51.472;6.628;2023-04-03T03:47:28;4.80;;;2.83;;
1258;SDS011;619;51.472;6.628;2023-04-03T03:49:57;5.53;;;2.90;;
1258;SDS011;619;51.472;6.628;2023-04-03T03:52:23;6.97;;;2.70;;
1258;SDS011;619;51.472;6.628;2023-04-03T03:54:49;5.00;;;2.60;;
1258;SDS011;619;51.472;6.628;2023-04-03T03:57:20;6.10;;;3.20;;
1258;SDS011;619;51.472;6.628;2023-04-03T03:59:46;5.00;;;2.90;;
1258;SDS011;619;51.472;6.628;2023-04-03T04:02:15;8.70;;;4.20;;
1258;SDS011;619;51.472;6.628;2023-04-03T04:04:41;6.50;;;3.23;;
1258;SDS011;619;51.472;6.628;2023-04-03T04:07:10;8.43;;;2.93;;
1258;SDS011;619;51.472;6.628;2023-04-03T04:09:37;8.80;;;2.87;;
1258;SDS011;619;51.472;6.628;2023-04-03T04:12:03;3.40;;;2.17;;
1258;SDS011;619;51.472;6.628;2023-04-03T04:14:29;4.47;;;2.13;;
1258;SDS011;619;51.472;6.628;2023-04-03T04:16:57;5.83;;;2.97;;
1258;SDS011;619;51.472;6.628;2023-04-03T04:19:27;5.67;;;2.43;;
1258;SDS011;619;51.472;6.628;2023-04-03T04:21:53;3.53;;;2.60;;
1258;SDS011;619;51.472;6.628;2023-04-03T04:24:19;7.60;;;2.83;;
1258;SDS011;619;51.472;6.628;2023-04-03T04:26:47;5.13;;;2.40;;
1258;SDS011;619;51.472;6.628;2023-04-03T04:29:13;6.40;;;2.77;;
1258;SDS011;619;51.472;6.628;2023-04-03T04:31:39;4.10;;;2.27;;
1258;SDS011;619;51.472;6.628;2023-04-03T04:34:08;6.40;;;2.40;;
1258;SDS011;619;51.472;6.628;2023-04-03T04:36:34;3.77;;;2.73;;
1258;SDS011;619;51.472;6.628;2023-04-03T04:39:00;3.17;;;2.43;;
1258;SDS011;619;51.472;6.628;2023-04-03T04:41:26;6.33;;;2.60;;
1258;SDS011;619;51.472;6.628;2023-04-03T04:43:52;5.03;;;2.23;;
1258;SDS011;619;51.472;6.628;2023-04-03T04:46:20;5.83;;;2.37;;
1258;SDS011;619;51.472;6.628;2023-04-03T04:48:47;5.10;;;2.43;;
1258;SDS011;619;51.472;6.628;2023-04-03T04:51:20;5.57;;;2.80;;
1258;SDS011;619;51.472;6.628;2023-04-03T04:53:46;6.60;;;2.80;;
1258;SDS011;619;51.472;6.628;2023-04-03T04:56:14;6.07;;;2.67;;
1258;SDS011;619;51.472;6.628;2023-04-03T04:58:40;10.57;;;2.30;;
1258;SDS011;619;51.472;6.628;2023-04-03T05:01:07;4.10;;;2.03;;
1258;SDS011;619;51.472;6.628;2023-04-03T05:03:33;9.23;;;2.50;;
1258;SDS011;619;51.472;6.628;2023-04-03T05:05:59;4.00;;;3.20;;
1258;SDS011;619;51.472;6.628;2023-04-03T05:08:30;4.70;;;2.90;;
1258;SDS011;619;51.472;6.628;2023-04-03T05:10:56;7.40;;;2.70;;
1258;SDS011;619;51.472;6.628;2023-04-03T05:13:25;3.77;;;2.60;;
1258;SDS011;619;51.472;6.628;2023-04-03T05:15:53;7.37;;;2.80;;
1258;SDS011;619;51.472;6.628;2023-04-03T05:18:19;6.03;;;2.60;;
1258;SDS011;619;51.472;6.628;2023-04-03T05:20:47;9.17;;;3.10;;
1258;SDS011;619;51.472;6.628;2023-04-03T05:23:13;7.67;;;3.43;;
1258;SDS011;619;51.472;6.628;2023-04-03T05:25:41;7.00;;;2.50;;
1258;SDS011;619;51.472;6.628;2023-04-03T05:28:10;7.17;;;2.40;;
1258;SDS011;619;51.472;6.628;2023-04-03T05:30:38;9.00;;;2.53;;
1258;SDS011;619;51.472;6.628;2023-04-03T05:33:04;5.13;;;2.50;;
1258;SDS011;619;51.472;6.628;2023-04-03T05:35:30;2.93;;;2.30;;
1258;SDS011;619;51.472;6.628;2023-04-03T05:37:57;4.00;;;2.33;;
1258;SDS011;619;51.472;6.628;2023-04-03T05:40:23;4.03;;;1.80;;
1258;SDS011;619;51.472;6.628;2023-04-03T05:42:49;6.93;;;2.97;;
1258;SDS011;619;51.472;6.628;2023-04-03T05:45:15;3.60;;;2.27;;
1258;SDS011;619;51.472;6.628;2023-04-03T05:47:45;6.27;;;2.83;;
1258;SDS011;619;51.472;6.628;2023-04-03T05:50:12;4.70;;;2.30;;
1258;SDS011;619;51.472;6.628;2023-04-03T05:52:39;4.77;;;2.77;;
1258;SDS011;619;51.472;6.628;2023-04-03T05:55:06;5.83;;;2.77;;
1258;SDS011;619;51.472;6.628;2023-04-03T05:57:35;7.47;;;4.27;;
1258;SDS011;619;51.472;6.628;2023-04-03T06:00:00;5.00;;;4.17;;
1258;SDS011;619;51.472;6.628;2023-04-03T06:02:27;5.87;;;3.40;;
1258;SDS011;619;51.472;6.628;2023-04-03T06:04:56;4.17;;;2.20;;
1258;SDS011;619;51.472;6.628;2023-04-03T06:07:23;6.87;;;2.70;;
1258;SDS011;619;51.472;6.628;2023-04-03T06:09:53;4.70;;;2.97;;
1258;SDS011;619;51.472;6.628;2023-04-03T06:12:23;6.03;;;2.60;;
1258;SDS011;619;51.472;6.628;2023-04-03T06:14:49;4.80;;;2.37;;
1258;SDS011;619;51.472;6.628;2023-04-03T06:17:15;11.63;;;2.47;;
1258;SDS011;619;51.472;6.628;2023-04-03T06:19:44;5.03;;;2.50;;
1258;SDS011;619;51.472;6.628;2023-04-03T06:22:12;7.67;;;3.17;;
1258;SDS011;619;51.472;6.628;2023-04-03T06:24:38;7.30;;;3.00;;
1258;SDS011;619;51.472;6.628;2023-04-03T06:27:04;9.97;;;3.17;;
1258;SDS011;619;51.472;6.628;2023-04-03T06:29:32;7.37;;;3.77;;
1258;SDS011;619;51.472;6.628;2023-04-03T06:31:58;7.93;;;4.53;;
1258;SDS011;619;51.472;6.628;2023-04-03T06:34:24;14.23;;;6.83;;
1258;SDS011;619;51.472;6.628;2023-04-03T06:36:50;12.00;;;6.10;;
1258;SDS011;619;51.472;6.628;2023-04-03T06:39:18;8.63;;;4.90;;
1258;SDS011;619;51.472;6.628;2023-04-03T06:41:48;9.50;;;4.73;;
1258;SDS011;619;51.472;6.628;2023-04-03T06:44:16;14.10;;;5.40;;
1258;SDS011;619;51.472;6.628;2023-04-03T06:46:42;20.83;;;4.87;;
1258;SDS011;619;51.472;6.628;2023-04-03T06:49:10;6.73;;;3.70;;
1258;SDS011;619;51.472;6.628;2023-04-03T06:51:38;13.20;;;4.47;;
1258;SDS011;619;51.472;6.628;2023-04-03T06:54:07;9.73;;;5.00;;
1258;SDS011;619;51.472;6.628;2023-04-03T06:56:33;8.50;;;4.50;;
1258;SDS011;619;51.472;6.628;2023-04-03T06:59:02;8.20;;;3.43;;
1258;SDS011;619;51.472;6.628;2023-04-03T07:01:30;5.77;;;3.10;;
1258;SDS011;619;51.472;6.628;2023-04-03T07:03:57;6.60;;;2.90;;
1258;SDS011;619;51.472;6.628;2023-04-03T07:06:23;8.17;;;5.03;;
1258;SDS011;619;51.472;6.628;2023-04-03T07:08:54;6.40;;;3.03;;
1258;SDS011;619;51.472;6.628;2023-04-03T07:11:20;6.30;;;2.50;;
1258;SDS011;619;51.472;6.628;2023-04-03T07:13:49;7.83;;;2.67;;
1258;SDS011;619;51.472;6.628;2023-04-03T07:16:16;5.67;;;2.50;;
1258;SDS011;619;51.472;6.628;2023-04-03T07:18:42;5.23;;;2.80;;
1258;SDS011;619;51.472;6.628;2023-04-03T07:21:08;6.80;;;2.50;;
1258;SDS011;619;51.472;6.628;2023-04-03T07:23:36;6.27;;;2.60;;
1258;SDS011;619;51.472;6.628;2023-04-03T07:26:02;6.40;;;2.63;;
1258;SDS011;619;51.472;6.628;2023-04-03T07:28:29;5.33;;;2.50;;
1258;SDS011;619;51.472;6.628;2023-04-03T07:31:01;9.20;;;2.60;;
1258;SDS011;619;51.472;6.628;2023-04-03T07:33:28;6.90;;;2.33;;
1258;SDS011;619;51.472;6.628;2023-04-03T07:35:54;3.07;;;1.57;;
1258;SDS011;619;51.472;6.628;2023-04-03T07:38:22;3.43;;;2.17;;
1258;SDS011;619;51.472;6.628;2023-04-03T07:40:49;9.73;;;3.17;;
1258;SDS011;619;51.472;6.628;2023-04-03T07:43:16;13.70;;;2.73;;
1258;SDS011;619;51.472;6.628;2023-04-03T07:45:42;6.27;;;2.80;;
1258;SDS011;619;51.472;6.628;2023-04-03T07:48:09;6.80;;;4.67;;
1258;SDS011;619;51.472;6.628;2023-04-03T07:50:39;5.47;;;3.60;;
1258;SDS011;619;51.472;6.628;2023-04-03T07:53:05;6.90;;;2.53;;
1258;SDS011;619;51.472;6.628;2023-04-03T07:55:33;6.80;;;3.70;;
1258;SDS011;619;51.472;6.628;2023-04-03T07:58:04;7.83;;;2.80;;
1258;SDS011;619;51.472;6.628;2023-04-03T08:00:30;7.90;;;4.23;;
1258;SDS011;619;51.472;6.628;2023-04-03T08:03:01;9.63;;;4.10;;
1258;SDS011;619;51.472;6.628;2023-04-03T08:05:29;8.20;;;4.03;;
1258;SDS011;619;51.472;6.628;2023-04-03T08:07:56;8.17;;;3.10;;
1258;SDS011;619;51.472;6.628;2023-04-03T08:10:24;5.60;;;2.40;;
1258;SDS011;619;51.472;6.628;2023-04-03T08:12:50;7.10;;;3.30;;
1258;SDS011;619;51.472;6.628;2023-04-03T08:15:18;8.70;;;2.87;;
1258;SDS011;619;51.472;6.628;2023-04-03T08:17:47;6.80;;;2.40;;
1258;SDS011;619;51.472;6.628;2023-04-03T08:20:18;6.13;;;2.33;;
1258;SDS011;619;51.472;6.628;2023-04-03T08:22:46;6.40;;;2.40;;
1258;SDS011;619;51.472;6.628;2023-04-03T08:25:12;5.10;;;2.10;;
1258;SDS011;619;51.472;6.628;2023-04-03T08:27:41;8.07;;;4.93;;
1258;SDS011;619;51.472;6.628;2023-04-03T08:30:10;2.93;;;1.70;;
1258;SDS011;619;51.472;6.628;2023-04-03T08:32:36;4.57;;;2.43;;
1258;SDS011;619;51.472;6.628;2023-04-03T08:35:06;2.70;;;1.57;;
1258;SDS011;619;51.472;6.628;2023-04-03T08:37:35;3.73;;;1.70;;
1258;SDS011;619;51.472;6.628;2023-04-03T08:40:02;3.60;;;1.53;;
1258;SDS011;619;51.472;6.628;2023-04-03T08:45:09;5.70;;;2.43;;
1258;SDS011;619;51.472;6.628;2023-04-03T08:50:04;4.03;;;1.60;;
1258;SDS011;619;51.472;6.628;2023-04-03T08:52:47;2.30;;;1.77;;
1258;SDS011;619;51.472;6.628;2023-04-03T08:55:23;7.23;;;1.80;;
1258;SDS011;619;51.472;6.628;2023-04-03T08:57:53;5.27;;;2.03;;
1258;SDS011;619;51.472;6.628;2023-04-03T09:00:25;2.97;;;1.77;;
1258;SDS011;619;51.472;6.628;2023-04-03T09:02:54;3.43;;;1.90;;
1258;SDS011;619;51.472;6.628;2023-04-03T09:08:18;6.10;;;2.00;;
1258;SDS011;619;51.472;6.628;2023-04-03T09:10:47;3.67;;;1.77;;
1258;SDS011;619;51.472;6.628;2023-04-03T09:15:45;2.40;;;1.27;;
1258;SDS011;619;51.472;6.628;2023-04-03T09:21:31;2.87;;;1.20;;
1258;SDS011;619;51.472;6.628;2023-04-03T09:23:33;9.50;;;1.80;;
1258;SDS011;619;51.472;6.628;2023-04-03T09:26:08;2.30;;;1.10;;
1258;SDS011;619;51.472;6.628;2023-04-03T09:28:38;3.20;;;1.27;;
1258;SDS011;619;51.472;6.628;2023-04-03T09:31:16;4.70;;;1.20;;
1258;SDS011;619;51.472;6.628;2023-04-03T09:33:45;2.90;;;1.30;;
1258;SDS011;619;51.472;6.628;2023-04-03T09:36:11;1.87;;;1.30;;
1258;SDS011;619;51.472;6.628;2023-04-03T09:38:39;5.33;;;2.30;;
1258;SDS011;619;51.472;6.628;2023-04-03T09:41:15;5.93;;;1.60;;
1258;SDS011;619;51.472;6.628;2023-04-03T09:43:42;1.93;;;1.00;;
1258;SDS011;619;51.472;6.628;2023-04-03T09:46:18;2.23;;;1.57;;
1258;SDS011;619;51.472;6.628;2023-04-03T09:49:00;3.53;;;1.73;;
1258;SDS011;619;51.472;6.628;2023-04-03T09:51:27;2.40;;;1.17;;
1258;SDS011;619;51.472;6.628;2023-04-03T09:53:58;4.20;;;1.67;;
1258;SDS011;619;51.472;6.628;2023-04-03T09:56:27;4.10;;;1.37;;
1258;SDS011;619;51.472;6.628;2023-04-03T10:01:32;3.20;;;1.73;;
1258;SDS011;619;51.472;6.628;2023-04-03T10:06:36;4.60;;;1.70;;
1258;SDS011;619;51.472;6.628;2023-04-03T10:09:50;3.37;;;1.50;;
1258;SDS011;619;51.472;6.628;2023-04-03T10:14:30;2.00;;;1.10;;
1258;SDS011;619;51.472;6.628;2023-04-03T10:27:13;2.33;;;1.00;;
1258;SDS011;619;51.472;6.628;2023-04-03T10:34:51;2.53;;;1.23;;
1258;SDS011;619;51.472;6.628;2023-04-03T10:37:29;3.00;;;1.33;;
1258;SDS011;619;51.472;6.628;2023-04-03T10:40:17;3.57;;;1.80;;
1258;SDS011;619;51.472;6.628;2023-04-03T10:56:39;2.73;;;1.30;;
1258;SDS011;619;51.472;6.628;2023-04-03T11:04:50;4.00;;;0.90;;
1258;SDS011;619;51.472;6.628;2023-04-03T11:07:18;2.80;;;1.23;;
1258;SDS011;619;51.472;6.628;2023-04-03T11:09:47;2.57;;;1.43;;
1258;SDS011;619;51.472;6.628;2023-04-03T11:14:43;7.40;;;2.23;;
1258;SDS011;619;51.472;6.628;2023-04-03T11:17:11;2.50;;;1.37;;
1258;SDS011;619;51.472;6.628;2023-04-03T11:19:45;1.93;;;1.27;;
1258;SDS011;619;51.472;6.628;2023-04-03T11:22:23;5.20;;;1.83;;
1258;SDS011;619;51.472;6.628;2023-04-03T11:24:59;3.30;;;1.70;;
1258;SDS011;619;51.472;6.628;2023-04-03T11:27:28;3.07;;;1.60;;
1258;SDS011;619;51.472;6.628;2023-04-03T11:29:59;4.10;;;1.37;;
1258;SDS011;619;51.472;6.628;2023-04-03T11:34:54;1.63;;;1.40;;
1258;SDS011;619;51.472;6.628;2023-04-03T11:37:40;1.70;;;1.13;;
1258;SDS011;619;51.472;6.628;2023-04-03T11:42:39;3.10;;;2.07;;
1258;SDS011;619;51.472;6.628;2023-04-03T11:45:15;6.73;;;2.90;;
1258;SDS011;619;51.472;6.628;2023-04-03T11:47:43;2.80;;;1.10;;
1258;SDS011;619;51.472;6.628;2023-04-03T11:53:37;3.53;;;1.47;;
1258;SDS011;619;51.472;6.628;2023-04-03T11:58:15;4.00;;;1.47;;
1258;SDS011;619;51.472;6.628;2023-04-03T12:16:03;3.83;;;1.20;;
1258;SDS011;619;51.472;6.628;2023-04-03T12:18:43;2.20;;;1.37;;
1258;SDS011;619;51.472;6.628;2023-04-03T12:21:13;4.03;;;1.90;;
1258;SDS011;619;51.472;6.628;2023-04-03T12:26:32;2.13;;;1.30;;
1258;SDS011;619;51.472;6.628;2023-04-03T12:29:01;2.83;;;1.43;;
1258;SDS011;619;51.472;6.628;2023-04-03T12:32:37;3.57;;;1.87;;
1258;SDS011;619;51.472;6.628;2023-04-03T12:34:41;2.77;;;1.70;;
1258;SDS011;619;51.472;6.628;2023-04-03T12:37:21;3.30;;;1.50;;
1258;SDS011;619;51.472;6.628;2023-04-03T12:39:59;4.00;;;2.37;;
1258;SDS011;619;51.472;6.628;2023-04-03T12:42:45;3.80;;;2.13;;
1258;SDS011;619;51.472;6.628;2023-04-03T12:45:20;3.33;;;1.47;;
1258;SDS011;619;51.472;6.628;2023-04-03T12:47:48;3.07;;;2.10;;
1258;SDS011;619;51.472;6.628;2023-04-03T12:50:20;5.50;;;2.10;;
1258;SDS011;619;51.472;6.628;2023-04-03T12:55:23;1.53;;;1.23;;
1258;SDS011;619;51.472;6.628;2023-04-03T12:57:49;4.30;;;1.57;;
1258;SDS011;619;51.472;6.628;2023-04-03T13:00:19;3.87;;;2.20;;
1258;SDS011;619;51.472;6.628;2023-04-03T13:02:48;2.53;;;1.50;;
1258;SDS011;619;51.472;6.628;2023-04-03T13:05:18;2.90;;;1.90;;
1258;SDS011;619;51.472;6.628;2023-04-03T13:07:44;3.37;;;1.90;;
1258;SDS011;619;51.472;6.628;2023-04-03T13:10:17;2.63;;;1.40;;
1258;SDS011;619;51.472;6.628;2023-04-03T13:12:50;4.43;;;2.37;;
1258;SDS011;619;51.472;6.628;2023-04-03T13:17:52;5.23;;;3.20;;
1258;SDS011;619;51.472;6.628;2023-04-03T13:20:34;8.53;;;3.07;;
1258;SDS011;619;51.472;6.628;2023-04-03T13:25:29;5.30;;;2.07;;
1258;SDS011;619;51.472;6.628;2023-04-03T13:27:56;2.50;;;1.77;;
1258;SDS011;619;51.472;6.628;2023-04-03T13:32:54;4.53;;;2.13;;
1258;SDS011;619;51.472;6.628;2023-04-03T13:35:34;3.03;;;1.70;;
1258;SDS011;619;51.472;6.628;2023-04-03T13:38:02;3.27;;;1.40;;
1258;SDS011;619;51.472;6.628;2023-04-03T13:40:52;4.23;;;1.40;;
1258;SDS011;619;51.472;6.628;2023-04-03T13:43:27;2.20;;;1.70;;
1258;SDS011;619;51.472;6.628;2023-04-03T13:45:56;4.03;;;1.40;;
1258;SDS011;619;51.472;6.628;2023-04-03T13:48:43;3.33;;;1.77;;
1258;SDS011;619;51.472;6.628;2023-04-03T13:51:17;5.93;;;2.20;;
1258;SDS011;619;51.472;6.628;2023-04-03T13:53:56;2.23;;;1.27;;
1258;SDS011;619;51.472;6.628;2023-04-03T13:56:40;3.47;;;1.50;;
1258;SDS011;619;51.472;6.628;2023-04-03T14:04:12;4.00;;;2.00;;
1258;SDS011;619;51.472;6.628;2023-04-03T14:07:01;3.57;;;2.00;;
1258;SDS011;619;51.472;6.628;2023-04-03T14:09:27;2.70;;;1.40;;
1258;SDS011;619;51.472;6.628;2023-04-03T14:11:56;2.27;;;1.40;;
1258;SDS011;619;51.472;6.628;2023-04-03T14:14:33;2.83;;;1.70;;
1258;SDS011;619;51.472;6.628;2023-04-03T14:17:01;2.67;;;1.17;;
1258;SDS011;619;51.472;6.628;2023-04-03T14:19:29;2.63;;;1.67;;
1258;SDS011;619;51.472;6.628;2023-04-03T14:21:58;3.10;;;1.33;;
1258;SDS011;619;51.472;6.628;2023-04-03T14:24:28;6.87;;;2.07;;
1258;SDS011;619;51.472;6.628;2023-04-03T14:26:59;4.33;;;1.80;;
1258;SDS011;619;51.472;6.628;2023-04-03T14:29:25;2.00;;;1.30;;
1258;SDS011;619;51.472;6.628;2023-04-03T14:31:53;2.57;;;1.37;;
1258;SDS011;619;51.472;6.628;2023-04-03T14:34:18;2.37;;;1.30;;
1258;SDS011;619;51.472;6.628;2023-04-03T14:36:48;1.50;;;0.90;;
1258;SDS011;619;51.472;6.628;2023-04-03T14:39:17;2.50;;;1.70;;
1258;SDS011;619;51.472;6.628;2023-04-03T14:41:44;8.37;;;1.97;;
1258;SDS011;619;51.472;6.628;2023-04-03T14:44:10;1.90;;;1.40;;
1258;SDS011;619;51.472;6.628;2023-04-03T14:46:36;3.80;;;1.50;;
1258;SDS011;619;51.472;6.628;2023-04-03T14:49:06;4.73;;;1.60;;
1258;SDS011;619;51.472;6.628;2023-04-03T14:51:39;2.00;;;1.63;;
1258;SDS011;619;51.472;6.628;2023-04-03T14:54:05;2.37;;;1.50;;
1258;SDS011;619;51.472;6.628;2023-04-03T14:56:41;2.67;;;1.43;;
1258;SDS011;619;51.472;6.628;2023-04-03T14:59:09;4.10;;;1.60;;
1258;SDS011;619;51.472;6.628;2023-04-03T15:01:37;2.97;;;2.20;;
1258;SDS011;619;51.472;6.628;2023-04-03T15:04:16;1.73;;;1.40;;
1258;SDS011;619;51.472;6.628;2023-04-03T15:06:44;4.63;;;1.27;;
1258;SDS011;619;51.472;6.628;2023-04-03T15:09:21;2.70;;;1.00;;
1258;SDS011;619;51.472;6.628;2023-04-03T15:11:47;2.63;;;1.60;;
1258;SDS011;619;51.472;6.628;2023-04-03T15:14:17;1.97;;;1.10;;
1258;SDS011;619;51.472;6.628;2023-04-03T15:16:43;2.23;;;1.57;;
1258;SDS011;619;51.472;6.628;2023-04-03T15:19:11;4.13;;;1.80;;
1258;SDS011;619;51.472;6.628;2023-04-03T15:21:38;2.13;;;1.30;;
1258;SDS011;619;51.472;6.628;2023-04-03T15:24:06;2.30;;;1.50;;
1258;SDS011;619;51.472;6.628;2023-04-03T15:26:32;2.37;;;1.27;;
1258;SDS011;619;51.472;6.628;2023-04-03T15:29:00;2.07;;;0.87;;
1258;SDS011;619;51.472;6.628;2023-04-03T15:31:26;1.77;;;1.23;;
1258;SDS011;619;51.472;6.628;2023-04-03T15:33:52;4.00;;;1.93;;
1258;SDS011;619;51.472;6.628;2023-04-03T15:36:18;2.53;;;1.30;;
1258;SDS011;619;51.472;6.628;2023-04-03T15:38:43;2.27;;;1.20;;
1258;SDS011;619;51.472;6.628;2023-04-03T15:41:09;3.50;;;1.30;;
1258;SDS011;619;51.472;6.628;2023-04-03T15:43:38;3.43;;;1.80;;
1258;SDS011;619;51.472;6.628;2023-04-03T15:46:06;4.20;;;2.30;;
1258;SDS011;619;51.472;6.628;2023-04-03T15:48:32;5.80;;;2.60;;
1258;SDS011;619;51.472;6.628;2023-04-03T15:50:59;20.00;;;6.90;;
1258;SDS011;619;51.472;6.628;2023-04-03T15:53:27;9.83;;;2.67;;
1258;SDS011;619;51.472;6.628;2023-04-03T15:55:53;4.30;;;2.30;;
1258;SDS011;619;51.472;6.628;2023-04-03T15:58:19;6.27;;;2.20;;
1258;SDS011;619;51.472;6.628;2023-04-03T16:00:45;4.10;;;1.67;;
1258;SDS011;619;51.472;6.628;2023-04-03T16:03:15;4.03;;;2.27;;
1258;SDS011;619;51.472;6.628;2023-04-03T16:05:41;2.93;;;1.80;;
1258;SDS011;619;51.472;6.628;2023-04-03T16:08:10;3.43;;;1.60;;
1258;SDS011;619;51.472;6.628;2023-04-03T16:10:37;3.33;;;1.33;;
1258;SDS011;619;51.472;6.628;2023-04-03T16:13:04;3.80;;;1.47;;
1258;SDS011;619;51.472;6.628;2023-04-03T16:15:33;4.20;;;1.50;;
1258;SDS011;619;51.472;6.628;2023-04-03T16:18:00;2.30;;;1.50;;
1258;SDS011;619;51.472;6.628;2023-04-03T16:20:26;3.57;;;1.93;;
1258;SDS011;619;51.472;6.628;2023-04-03T16:22:56;2.37;;;1.60;;
1258;SDS011;619;51.472;6.628;2023-04-03T16:25:25;2.20;;;1.43;;
1258;SDS011;619;51.472;6.628;2023-04-03T16:27:51;5.27;;;1.80;;
1258;SDS011;619;51.472;6.628;2023-04-03T16:30:20;2.20;;;1.20;;
1258;SDS011;619;51.472;6.628;2023-04-03T16:32:46;3.67;;;2.17;;
1258;SDS011;619;51.472;6.628;2023-04-03T16:35:14;3.30;;;1.70;;
1258;SDS011;619;51.472;6.628;2023-04-03T16:37:40;2.97;;;1.53;;
1258;SDS011;619;51.472;6.628;2023-04-03T16:40:09;2.93;;;2.27;;
1258;SDS011;619;51.472;6.628;2023-04-03T16:42:39;4.83;;;2.10;;
1258;SDS011;619;51.472;6.628;2023-04-03T16:45:07;2.90;;;1.67;;
1258;SDS011;619;51.472;6.628;2023-04-03T16:47:35;4.90;;;1.77;;
1258;SDS011;619;51.472;6.628;2023-04-03T16:50:03;2.10;;;1.47;;
1258;SDS011;619;51.472;6.628;2023-04-03T16:52:29;3.47;;;2.07;;
1258;SDS011;619;51.472;6.628;2023-04-03T16:54:57;3.70;;;1.70;;
1258;SDS011;619;51.472;6.628;2023-04-03T16:57:25;3.27;;;1.73;;
1258;SDS011;619;51.472;6.628;2023-04-03T16:59:52;2.70;;;1.73;;
1258;SDS011;619;51.472;6.628;2023-04-03T17:02:25;5.50;;;1.60;;
1258;SDS011;619;51.472;6.628;2023-04-03T17:04:51;2.80;;;1.30;;
1258;SDS011;619;51.472;6.628;2023-04-03T17:07:18;2.70;;;1.57;;
1258;SDS011;619;51.472;6.628;2023-04-03T17:09:44;1.97;;;1.47;;
1258;SDS011;619;51.472;6.628;2023-04-03T17:12:10;3.20;;;1.67;;
1258;SDS011;619;51.472;6.628;2023-04-03T17:14:38;5.20;;;1.77;;
1258;SDS011;619;51.472;6.628;2023-04-03T17:17:05;4.83;;;2.10;;
1258;SDS011;619;51.472;6.628;2023-04-03T17:19:31;4.40;;;1.77;;
1258;SDS011;619;51.472;6.628;2023-04-03T17:21:57;3.10;;;1.40;;
1258;SDS011;619;51.472;6.628;2023-04-03T17:24:23;3.83;;;1.83;;
1258;SDS011;619;51.472;6.628;2023-04-03T17:26:49;7.03;;;2.53;;